Time;durP1;ratioP1;P1;durP2;ratioP2;P2;SDS_P1;SDS_P2;PMS_P1;PMS_P2;Temp;Humidity;BMP_temperature;BMP_pressure;BME280_temperature;BME280_humidity;BME280_pressure;Samples;Min_cycle;Max_cycle;Signal;HPM_P1;HPM_P2
2021/05/10 00:00:49;;;;;;;3.53;0.90;;;20.80;27.30;;;;;;5012864;28;20026;-77
2021/05/10 00:03:15;;;;;;;2.90;1.00;;;20.80;27.10;;;;;;5012724;28;20033;-76
2021/05/10 00:05:41;;;;;;;3.10;1.00;;;20.80;27.10;;;;;;5012730;28;20033;-76
2021/05/10 00:08:07;;;;;;;1.00;0.70;;;20.80;27.10;;;;;;5012691;28;20030;-76
2021/05/10 00:10:34;;;;;;;2.38;0.90;;;20.80;27.10;;;;;;5012612;28;20026;-76
2021/05/10 00:13:00;;;;;;;3.45;1.08;;;20.80;27.00;;;;;;5012744;28;20067;-76
2021/05/10 00:15:26;;;;;;;2.15;1.00;;;20.80;27.00;;;;;;5012282;28;20479;-77
2021/05/10 00:17:53;;;;;;;3.53;1.02;;;20.80;27.00;;;;;;5012709;28;20022;-76
2021/05/10 00:20:19;;;;;;;2.65;0.98;;;20.80;27.20;;;;;;5012577;28;20045;-77
2021/05/10 00:22:44;;;;;;;0.85;0.80;;;20.70;27.40;;;;;;5012516;28;20435;-76
2021/05/10 00:25:11;;;;;;;3.55;1.40;;;20.60;27.50;;;;;;5012358;28;20038;-77
2021/05/10 00:27:36;;;;;;;2.72;1.05;;;20.60;27.60;;;;;;5012358;28;20572;-76
2021/05/10 00:30:04;;;;;;;2.22;1.00;;;20.50;27.70;;;;;;5012537;28;20030;-77
2021/05/10 00:32:29;;;;;;;1.95;1.00;;;20.60;27.90;;;;;;5012397;28;20409;-77
2021/05/10 00:34:55;;;;;;;5.25;0.80;;;20.50;27.90;;;;;;5012429;28;20071;-76
2021/05/10 00:37:21;;;;;;;4.30;0.75;;;20.50;28.00;;;;;;5012013;28;20022;-77
2021/05/10 00:39:46;;;;;;;2.50;1.00;;;20.50;28.20;;;;;;5012473;28;20533;-77
2021/05/10 00:42:12;;;;;;;1.30;0.80;;;20.40;28.30;;;;;;5011150;28;20390;-77
2021/05/10 00:44:38;;;;;;;1.50;1.05;;;20.30;28.50;;;;;;5011967;28;20049;-77
2021/05/10 00:47:04;;;;;;;1.90;0.77;;;20.30;28.70;;;;;;5012113;28;20022;-77
2021/05/10 00:49:29;;;;;;;1.70;0.90;;;20.20;28.90;;;;;;5012154;28;20500;-77
2021/05/10 00:51:55;;;;;;;2.20;0.90;;;20.20;29.20;;;;;;5012161;28;20064;-77
2021/05/10 00:54:20;;;;;;;1.92;0.98;;;20.10;29.50;;;;;;5012236;28;20163;-77
2021/05/10 00:56:46;;;;;;;3.85;0.90;;;20.00;29.60;;;;;;5012045;28;20018;-76
2021/05/10 00:59:13;;;;;;;0.85;0.70;;;20.00;29.80;;;;;;5012159;28;20059;-76
2021/05/10 01:01:38;;;;;;;1.38;0.75;;;19.90;29.90;;;;;;5012082;28;20030;-76
2021/05/10 01:04:04;;;;;;;2.38;0.90;;;19.90;30.00;;;;;;5011944;28;20057;-77
2021/05/10 01:06:30;;;;;;;4.40;1.17;;;20.00;30.00;;;;;;5011796;28;20048;-76
2021/05/10 01:08:55;;;;;;;2.92;1.10;;;19.90;30.40;;;;;;5011866;28;20114;-76
2021/05/10 01:11:21;;;;;;;1.80;0.70;;;19.70;30.80;;;;;;5011755;28;20022;-76
2021/05/10 01:13:48;;;;;;;2.80;1.00;;;19.70;31.10;;;;;;5011818;28;20026;-76
2021/05/10 01:16:13;;;;;;;1.88;0.98;;;19.50;31.40;;;;;;5011800;28;20018;-76
2021/05/10 01:18:40;;;;;;;1.10;0.90;;;19.50;31.50;;;;;;5011651;28;20399;-76
2021/05/10 01:21:07;;;;;;;5.30;0.95;;;19.50;31.60;;;;;;5011755;28;20030;-76
2021/05/10 01:23:32;;;;;;;2.70;0.98;;;19.50;31.60;;;;;;5011567;28;20034;-76
2021/05/10 01:25:58;;;;;;;3.88;1.00;;;19.50;31.60;;;;;;5011568;28;20036;-76
2021/05/10 01:28:24;;;;;;;1.20;0.82;;;19.40;32.30;;;;;;5010246;28;20030;-76
2021/05/10 01:30:50;;;;;;;2.13;0.80;;;19.50;31.60;;;;;;5011597;28;20117;-76
2021/05/10 01:33:19;;;;;;;3.10;1.23;;;19.50;31.60;;;;;;5011299;28;20018;-76
2021/05/10 01:35:47;;;;;;;2.33;0.95;;;19.40;31.50;;;;;;5011422;28;20022;-76
2021/05/10 01:38:14;;;;;;;3.75;1.00;;;19.50;31.60;;;;;;5011360;28;20022;-77
2021/05/10 01:40:40;;;;;;;2.92;0.90;;;19.40;31.50;;;;;;5011387;28;20058;-77
2021/05/10 01:43:05;;;;;;;3.30;0.93;;;19.50;31.50;;;;;;5011160;28;20053;-77
2021/05/10 01:45:36;;;;;;;4.45;1.33;;;19.50;31.40;;;;;;5011061;28;20037;-77
2021/05/10 01:48:06;;;;;;;3.40;1.15;;;19.60;31.30;;;;;;5010811;28;20022;-76
2021/05/10 01:50:33;;;;;;;1.92;0.90;;;19.60;31.30;;;;;;5010847;28;20033;-77
2021/05/10 01:52:58;;;;;;;5.45;0.95;;;19.60;31.10;;;;;;5010915;28;20168;-76
2021/05/10 01:55:25;;;;;;;3.67;1.08;;;19.60;31.10;;;;;;5011019;28;20105;-77
2021/05/10 01:57:58;;;;;;;5.45;0.95;;;19.60;31.10;;;;;;5011067;28;20026;-77
2021/05/10 02:00:33;;;;;;;2.42;1.10;;;19.60;31.10;;;;;;5010980;28;20030;-78
2021/05/10 02:03:09;;;;;;;2.05;1.10;;;19.70;31.20;;;;;;5011232;28;20030;-77
2021/05/10 02:05:35;;;;;;;2.10;1.30;;;19.60;31.20;;;;;;5009626;28;20531;-77
2021/05/10 02:08:04;;;;;;;3.17;1.20;;;19.50;31.30;;;;;;5011016;28;20101;-76
2021/05/10 02:10:31;;;;;;;4.32;1.08;;;19.50;31.30;;;;;;5010859;28;20026;-76
2021/05/10 02:13:04;;;;;;;3.03;1.15;;;19.60;31.30;;;;;;5011002;28;20162;-77
2021/05/10 02:15:40;;;;;;;1.60;0.98;;;19.60;31.20;;;;;;5010816;28;20070;-77
2021/05/10 02:18:07;;;;;;;2.17;1.08;;;19.70;31.20;;;;;;5012766;28;20037;-77
2021/05/10 02:20:33;;;;;;;1.95;0.90;;;19.70;31.10;;;;;;5015271;28;20032;-77
2021/05/10 02:23:10;;;;;;;1.48;0.65;;;19.70;31.10;;;;;;5012320;28;20025;-76
2021/05/10 02:25:38;;;;;;;1.98;1.02;;;19.70;31.10;;;;;;5010639;28;20037;-77
2021/05/10 02:28:10;;;;;;;1.88;0.60;;;19.70;31.10;;;;;;5010633;28;20101;-77
2021/05/10 02:30:39;;;;;;;2.97;1.45;;;19.70;31.20;;;;;;5010642;28;20415;-77
2021/05/10 02:33:08;;;;;;;1.95;1.05;;;19.60;31.30;;;;;;5010597;28;20022;-77
2021/05/10 02:35:35;;;;;;;4.78;0.98;;;19.60;31.40;;;;;;5010477;28;20030;-77
2021/05/10 02:38:01;;;;;;;3.08;1.00;;;19.50;31.70;;;;;;5010524;28;20025;-77
2021/05/10 02:40:26;;;;;;;1.98;1.00;;;19.40;31.80;;;;;;5009218;28;20348;-76
2021/05/10 02:42:52;;;;;;;2.22;1.00;;;19.50;31.90;;;;;;5010280;28;20090;-76
2021/05/10 02:45:19;;;;;;;5.95;1.15;;;19.50;31.80;;;;;;5010416;28;20065;-77
2021/05/10 02:47:45;;;;;;;1.15;0.70;;;19.60;31.80;;;;;;5010211;28;20026;-76
2021/05/10 02:50:18;;;;;;;3.25;0.90;;;19.60;31.80;;;;;;5010387;28;20433;-77
2021/05/10 02:52:44;;;;;;;3.17;1.10;;;19.60;31.90;;;;;;5010332;28;20029;-77
2021/05/10 02:55:10;;;;;;;5.07;1.15;;;19.50;32.00;;;;;;5010327;28;20036;-78
2021/05/10 02:57:36;;;;;;;3.78;0.80;;;19.50;32.00;;;;;;5010168;28;20644;-78
2021/05/10 03:00:05;;;;;;;3.55;1.00;;;19.50;32.10;;;;;;5011411;28;20040;-78
2021/05/10 03:02:31;;;;;;;1.80;0.98;;;19.60;32.00;;;;;;5013694;28;20030;-78
2021/05/10 03:04:56;;;;;;;1.65;1.00;;;19.60;32.00;;;;;;5013616;28;20040;-78
2021/05/10 03:07:22;;;;;;;2.05;0.80;;;19.70;32.00;;;;;;5013665;28;20049;-78
2021/05/10 03:09:47;;;;;;;1.95;1.00;;;19.80;31.90;;;;;;5013747;28;20101;-78
2021/05/10 03:12:13;;;;;;;1.00;0.77;;;19.90;31.80;;;;;;5013687;28;20095;-78
2021/05/10 03:14:38;;;;;;;4.22;1.20;;;19.90;31.60;;;;;;5013477;28;20030;-78
2021/05/10 03:17:04;;;;;;;1.38;1.13;;;20.00;31.50;;;;;;5013571;28;20030;-78
2021/05/10 03:19:30;;;;;;;2.70;1.00;;;19.90;31.40;;;;;;5015350;28;20026;-78
2021/05/10 03:21:55;;;;;;;0.90;0.80;;;20.00;31.30;;;;;;5014346;28;20022;-77
2021/05/10 03:24:21;;;;;;;2.10;1.00;;;19.90;31.50;;;;;;5013879;28;20385;-76
2021/05/10 03:26:47;;;;;;;0.82;0.80;;;19.90;31.60;;;;;;5013727;28;20029;-76
2021/05/10 03:29:13;;;;;;;3.28;0.88;;;19.80;31.60;;;;;;5013286;28;20146;-76
2021/05/10 03:31:38;;;;;;;3.33;0.80;;;19.90;31.70;;;;;;5013311;28;20026;-76
2021/05/10 03:34:05;;;;;;;3.67;1.30;;;19.90;31.70;;;;;;5012042;28;20500;-76
2021/05/10 03:36:30;;;;;;;2.45;1.08;;;19.80;31.70;;;;;;5013196;28;20054;-76
2021/05/10 03:38:56;;;;;;;2.92;1.02;;;19.80;31.90;;;;;;5013214;28;20529;-76
2021/05/10 03:41:24;;;;;;;5.18;0.95;;;19.80;31.90;;;;;;5013160;28;20022;-77
2021/05/10 03:43:51;;;;;;;2.42;0.80;;;19.80;32.00;;;;;;5012944;28;20099;-77
2021/05/10 03:46:17;;;;;;;5.82;0.90;;;19.80;32.00;;;;;;5012999;28;20033;-76
2021/05/10 03:48:43;;;;;;;5.38;1.15;;;19.70;32.20;;;;;;5013048;28;20025;-76
2021/05/10 03:51:09;;;;;;;4.38;1.00;;;19.80;32.30;;;;;;5012984;28;20508;-76
2021/05/10 03:53:35;;;;;;;2.08;0.85;;;19.80;32.20;;;;;;5012886;28;20105;-75
2021/05/10 03:56:01;;;;;;;2.00;1.02;;;19.80;32.30;;;;;;5012942;28;20057;-75
2021/05/10 03:58:26;;;;;;;2.53;1.02;;;20.00;32.00;;;;;;5012930;28;20039;-76
2021/05/10 04:00:52;;;;;;;1.38;0.85;;;20.00;31.80;;;;;;5012740;28;20026;-76
2021/05/10 04:03:19;;;;;;;3.83;0.90;;;20.00;31.90;;;;;;5012401;28;20030;-77
2021/05/10 04:11:11;;;;;;;2.08;0.90;;;19.80;32.50;;;;;;5012274;28;20037;-76
2021/05/10 04:13:55;;;;;;;2.10;1.00;;;19.70;33.00;;;;;;5012259;28;20030;-77
2021/05/10 04:16:21;;;;;;;1.65;0.82;;;19.70;33.20;;;;;;5011119;28;20026;-76
2021/05/10 04:18:47;;;;;;;3.53;0.98;;;19.50;33.60;;;;;;5012669;28;20037;-76
2021/05/10 04:21:13;;;;;;;3.70;1.23;;;19.40;33.80;;;;;;5012528;28;20484;-76
2021/05/10 04:23:39;;;;;;;1.55;0.77;;;19.30;33.90;;;;;;5012339;28;20053;-76
2021/05/10 04:26:04;;;;;;;1.90;0.63;;;19.30;34.00;;;;;;5012370;28;20033;-76
2021/05/10 04:28:30;;;;;;;1.95;0.98;;;19.30;34.40;;;;;;5012282;28;20037;-76
2021/05/10 04:30:56;;;;;;;2.53;1.08;;;19.20;34.70;;;;;;5012334;28;20030;-76
2021/05/10 04:33:31;;;;;;;3.78;0.90;;;19.20;35.20;;;;;;5010915;28;20033;-76
2021/05/10 04:35:57;;;;;;;2.15;1.20;;;19.10;35.40;;;;;;5012347;28;20504;-76
2021/05/10 04:38:24;;;;;;;1.45;0.85;;;19.10;35.50;;;;;;5012254;28;20030;-75
2021/05/10 04:40:50;;;;;;;1.60;0.90;;;19.10;35.50;;;;;;5012259;28;20038;-76
2021/05/10 04:43:16;;;;;;;2.10;0.90;;;19.10;35.60;;;;;;5012084;28;20499;-76
2021/05/10 04:45:42;;;;;;;2.55;0.80;;;19.20;35.30;;;;;;5012304;28;20059;-75
2021/05/10 04:48:08;;;;;;;3.05;0.80;;;19.20;35.30;;;;;;5011917;28;20037;-76
2021/05/10 04:50:34;;;;;;;1.52;1.05;;;19.20;35.10;;;;;;5011856;28;20018;-76
2021/05/10 04:52:59;;;;;;;2.15;0.85;;;19.40;34.80;;;;;;5011879;28;20093;-77
2021/05/10 04:55:25;;;;;;;1.23;0.90;;;19.40;34.50;;;;;;5011832;28;20030;-77
2021/05/10 04:57:51;;;;;;;1.95;0.90;;;19.50;34.50;;;;;;5012149;28;20470;-76
2021/05/10 05:00:17;;;;;;;1.02;0.55;;;19.60;34.20;;;;;;5012222;28;20065;-77
2021/05/10 05:02:44;;;;;;;2.17;0.93;;;19.70;34.00;;;;;;5011952;28;20065;-76
2021/05/10 05:05:11;;;;;;;0.90;0.73;;;19.70;33.90;;;;;;5011799;28;20065;-77
2021/05/10 05:07:39;;;;;;;2.65;0.88;;;19.80;33.90;;;;;;5011495;28;20074;-75
2021/05/10 05:10:08;;;;;;;1.10;0.77;;;19.70;34.50;;;;;;5012251;28;20105;-75
2021/05/10 05:12:35;;;;;;;1.25;0.70;;;19.70;34.90;;;;;;5011770;28;20033;-78
2021/05/10 05:15:00;;;;;;;1.10;0.70;;;19.70;34.80;;;;;;5011789;28;20592;-77
2021/05/10 05:17:26;;;;;;;3.03;1.00;;;19.70;34.60;;;;;;5011581;28;20026;-77
2021/05/10 05:19:52;;;;;;;1.42;0.73;;;19.70;34.40;;;;;;5011469;28;20026;-77
2021/05/10 05:22:17;;;;;;;2.85;0.73;;;19.80;34.20;;;;;;5010134;28;20101;-77
2021/05/10 05:24:43;;;;;;;1.42;0.80;;;19.90;34.10;;;;;;5009961;28;20123;-75
2021/05/10 05:27:09;;;;;;;3.10;1.30;;;20.00;33.90;;;;;;5011282;28;20398;-76
2021/05/10 05:29:34;;;;;;;2.63;0.70;;;20.00;33.70;;;;;;5011047;28;20038;-76
2021/05/10 05:32:00;;;;;;;2.90;0.70;;;20.00;33.60;;;;;;5010941;28;20082;-75
2021/05/10 05:34:26;;;;;;;1.75;0.80;;;20.00;33.60;;;;;;5010859;28;20033;-75
2021/05/10 05:36:51;;;;;;;2.97;0.90;;;20.10;33.80;;;;;;5010893;28;20021;-75
2021/05/10 05:39:17;;;;;;;4.00;1.30;;;20.00;33.80;;;;;;5011069;28;20079;-76
2021/05/10 05:41:42;;;;;;;2.55;0.93;;;20.10;33.80;;;;;;5011015;28;20474;-77
2021/05/10 05:44:08;;;;;;;3.72;1.00;;;20.10;33.80;;;;;;5010811;28;20049;-77
2021/05/10 05:46:38;;;;;;;2.90;1.00;;;20.20;33.60;;;;;;5010322;28;20026;-76
2021/05/10 05:49:04;;;;;;;3.70;1.02;;;20.20;33.30;;;;;;5008192;28;20151;-76
2021/05/10 05:51:30;;;;;;;4.90;0.80;;;20.30;33.10;;;;;;5011657;28;20021;-76
2021/05/10 05:53:56;;;;;;;2.72;0.80;;;20.40;33.10;;;;;;5012320;28;20030;-77
2021/05/10 05:56:22;;;;;;;1.33;0.90;;;20.40;33.00;;;;;;5010880;28;20055;-76
2021/05/10 05:58:48;;;;;;;4.50;0.70;;;20.40;32.90;;;;;;5011039;28;20026;-76
2021/05/10 06:01:14;;;;;;;1.67;1.00;;;20.50;32.80;;;;;;5010824;28;20044;-76
2021/05/10 06:03:40;;;;;;;3.85;0.73;;;20.50;32.80;;;;;;5010816;28;20538;-76
2021/05/10 06:06:06;;;;;;;1.83;0.82;;;20.60;32.70;;;;;;5010890;28;20062;-76
2021/05/10 06:08:32;;;;;;;2.22;0.65;;;20.70;32.80;;;;;;5010829;28;20022;-77
2021/05/10 06:10:57;;;;;;;4.22;1.00;;;20.70;32.60;;;;;;5010675;28;20053;-76
2021/05/10 06:13:23;;;;;;;4.88;0.80;;;20.80;32.50;;;;;;5010453;28;20053;-76
2021/05/10 06:15:49;;;;;;;2.58;0.85;;;20.80;32.60;;;;;;5010781;28;20118;-76
2021/05/10 06:18:15;;;;;;;4.28;1.33;;;20.90;32.60;;;;;;5010866;28;20022;-77
2021/05/10 06:20:40;;;;;;;4.25;1.02;;;21.00;32.60;;;;;;5010702;28;20480;-76
2021/05/10 06:23:06;;;;;;;3.53;0.80;;;21.00;32.50;;;;;;5010323;28;20029;-76
2021/05/10 06:25:32;;;;;;;2.13;0.80;;;21.00;32.40;;;;;;5010151;28;20038;-76
2021/05/10 06:27:58;;;;;;;3.25;1.00;;;21.00;32.50;;;;;;5010267;28;20049;-76
2021/05/10 06:30:23;;;;;;;4.45;1.20;;;21.00;32.80;;;;;;5010162;28;20450;-76
2021/05/10 06:32:51;;;;;;;3.10;0.90;;;21.00;33.00;;;;;;5010362;28;20288;-76
2021/05/10 06:35:17;;;;;;;3.78;1.05;;;21.10;33.30;;;;;;5009653;28;20029;-76
2021/05/10 06:37:43;;;;;;;4.80;1.00;;;21.00;33.30;;;;;;5010014;28;20026;-76
2021/05/10 06:40:10;;;;;;;2.25;0.85;;;21.00;33.20;;;;;;5010227;28;20036;-76
2021/05/10 06:42:36;;;;;;;2.20;0.95;;;21.10;33.10;;;;;;5010106;28;20038;-75
2021/05/10 06:45:05;;;;;;;3.03;1.00;;;21.00;33.10;;;;;;5009792;28;20054;-76
2021/05/10 06:47:31;;;;;;;2.80;1.02;;;21.10;33.20;;;;;;5009899;28;20018;-76
2021/05/10 06:49:56;;;;;;;1.77;0.95;;;21.10;33.30;;;;;;5008704;28;20022;-75
2021/05/10 06:52:22;;;;;;;2.25;0.70;;;21.00;33.50;;;;;;5010051;28;20503;-75
2021/05/10 06:54:47;;;;;;;2.40;0.93;;;21.00;33.70;;;;;;5010029;28;20026;-75
2021/05/10 06:57:13;;;;;;;5.38;1.20;;;21.10;33.80;;;;;;5010047;28;20486;-75
2021/05/10 06:59:39;;;;;;;4.28;1.10;;;21.10;33.50;;;;;;5009708;28;20580;-76
2021/05/10 07:02:06;;;;;;;6.50;1.17;;;21.20;33.10;;;;;;5008480;28;20037;-77
2021/05/10 07:04:32;;;;;;;2.20;0.95;;;21.20;33.00;;;;;;5009687;28;20153;-77
2021/05/10 07:06:57;;;;;;;4.40;1.00;;;21.20;32.90;;;;;;5009707;28;20166;-77
2021/05/10 07:09:23;;;;;;;2.60;1.15;;;21.20;33.00;;;;;;5008732;28;20030;-77
2021/05/10 07:11:49;;;;;;;3.28;1.10;;;21.20;32.90;;;;;;5010939;28;20104;-76
2021/05/10 07:14:14;;;;;;;1.73;0.93;;;21.20;33.10;;;;;;5008585;28;20022;-78
2021/05/10 07:16:40;;;;;;;3.80;1.20;;;21.20;33.20;;;;;;5010091;28;20374;-78
2021/05/10 07:19:06;;;;;;;3.88;1.40;;;21.20;33.60;;;;;;5009952;28;20029;-77
2021/05/10 07:21:31;;;;;;;5.10;1.23;;;21.10;33.40;;;;;;5009596;28;20535;-76
2021/05/10 07:23:57;;;;;;;3.00;0.80;;;21.10;33.40;;;;;;5010123;28;20038;-77
2021/05/10 07:26:23;;;;;;;2.95;0.80;;;21.20;33.20;;;;;;5009624;28;20432;-77
2021/05/10 07:28:48;;;;;;;2.55;0.90;;;21.30;33.50;;;;;;5009861;28;20022;-77
2021/05/10 07:31:14;;;;;;;4.20;0.82;;;21.40;33.30;;;;;;5009511;28;20091;-76
2021/05/10 07:33:40;;;;;;;3.72;0.70;;;21.50;33.20;;;;;;5009647;28;20030;-76
2021/05/10 07:36:05;;;;;;;4.07;2.20;;;21.60;33.10;;;;;;5009642;28;20025;-77
2021/05/10 07:38:31;;;;;;;2.58;1.10;;;21.80;33.20;;;;;;5009520;28;20057;-77
2021/05/10 07:40:57;;;;;;;2.58;1.10;;;21.90;33.10;;;;;;5009533;28;20101;-77
2021/05/10 07:43:23;;;;;;;2.80;0.90;;;22.00;32.50;;;;;;5009162;28;20122;-77
2021/05/10 07:45:49;;;;;;;2.20;0.90;;;22.00;31.80;;;;;;5009348;28;20482;-77
2021/05/10 07:48:15;;;;;;;7.63;1.40;;;22.00;32.70;;;;;;5011778;28;20041;-74
2021/05/10 07:50:41;;;;;;;5.22;1.52;;;22.00;34.20;;;;;;5012623;28;20037;-75
2021/05/10 07:53:06;;;;;;;6.25;1.20;;;22.20;35.40;;;;;;5012749;28;20458;-75
2021/05/10 07:55:33;;;;;;;2.85;1.00;;;22.40;34.10;;;;;;5012784;28;20033;-75
2021/05/10 07:57:59;;;;;;;2.60;0.82;;;22.50;33.70;;;;;;5011356;28;20026;-75
2021/05/10 08:00:29;;;;;;;2.65;0.98;;;22.70;34.00;;;;;;5012478;28;20102;-75
2021/05/10 08:02:58;;;;;;;3.13;0.93;;;22.90;34.10;;;;;;5012581;28;20033;-75
2021/05/10 08:05:23;;;;;;;6.13;1.42;;;23.00;33.60;;;;;;5012518;28;20037;-74
2021/05/10 08:07:49;;;;;;;2.47;1.50;;;23.00;34.30;;;;;;5012551;28;20021;-74
2021/05/10 08:10:15;;;;;;;3.17;1.67;;;22.70;35.90;;;;;;5012546;28;20436;-73
2021/05/10 08:12:41;;;;;;;4.07;1.30;;;22.50;35.90;;;;;;5012545;28;20070;-74
2021/05/10 08:15:08;;;;;;;6.18;1.30;;;22.50;35.40;;;;;;5012476;28;20083;-74
2021/05/10 08:17:35;;;;;;;4.70;1.40;;;22.40;34.60;;;;;;5012232;28;20030;-74
2021/05/10 08:20:02;;;;;;;6.93;1.27;;;22.10;35.20;;;;;;5012450;28;20034;-73
2021/05/10 08:22:29;;;;;;;2.70;1.15;;;21.70;36.40;;;;;;5012099;28;20030;-74
2021/05/10 08:24:54;;;;;;;4.93;1.42;;;21.50;37.40;;;;;;5012069;28;20061;-74
2021/05/10 08:27:20;;;;;;;6.53;1.33;;;21.50;37.50;;;;;;5012333;28;20053;-74
2021/05/10 08:29:46;;;;;;;4.05;1.33;;;21.70;37.60;;;;;;5011914;28;20033;-74
2021/05/10 08:32:12;;;;;;;1.77;0.90;;;21.60;37.70;;;;;;5011978;28;20041;-74
2021/05/10 08:34:37;;;;;;;2.05;1.10;;;21.60;37.50;;;;;;5012028;28;20026;-73
2021/05/10 08:37:03;;;;;;;4.13;1.10;;;21.70;37.50;;;;;;5012213;28;20501;-73
2021/05/10 08:39:29;;;;;;;2.58;0.95;;;21.90;37.50;;;;;;5011671;28;20033;-74
2021/05/10 08:41:55;;;;;;;4.70;1.00;;;22.10;37.60;;;;;;5014023;28;20101;-74
2021/05/10 08:44:21;;;;;;;9.00;1.70;;;22.00;38.20;;;;;;5011650;28;20050;-74
2021/05/10 08:46:47;;;;;;;4.63;1.15;;;22.20;38.70;;;;;;5011926;28;20071;-74
2021/05/10 08:49:18;;;;;;;4.00;1.10;;;22.30;38.40;;;;;;5011946;28;20029;-74
2021/05/10 08:51:43;;;;;;;4.43;1.13;;;22.40;38.70;;;;;;5011911;28;20056;-74
2021/05/10 08:54:26;;;;;;;2.67;1.02;;;22.50;37.90;;;;;;5011736;28;20064;-74
2021/05/10 08:56:52;;;;;;;3.35;1.10;;;22.60;37.10;;;;;;5011885;28;20018;-74
2021/05/10 08:59:21;;;;;;;2.72;1.20;;;22.70;37.00;;;;;;5011555;28;20023;-74
2021/05/10 09:01:56;;;;;;;3.15;1.17;;;23.00;36.50;;;;;;5011717;28;20018;-74
2021/05/10 09:04:35;;;;;;;2.33;1.10;;;23.00;36.10;;;;;;5011718;28;20100;-74
2021/05/10 09:07:14;;;;;;;2.47;1.20;;;23.00;36.20;;;;;;5011588;28;20022;-75
2021/05/10 09:10:02;;;;;;;2.67;1.17;;;22.90;36.60;;;;;;5011517;28;20030;-75
2021/05/10 09:12:47;;;;;;;5.30;1.65;;;23.00;36.80;;;;;;5011538;28;20101;-74
2021/05/10 09:15:27;;;;;;;3.20;1.05;;;22.90;37.10;;;;;;5011533;28;20086;-74
2021/05/10 09:17:57;;;;;;;3.08;1.15;;;23.00;37.40;;;;;;5011537;28;20030;-74
2021/05/10 09:20:28;;;;;;;6.65;2.20;;;23.00;37.80;;;;;;5011436;28;20040;-74
2021/05/10 09:23:00;;;;;;;4.03;1.77;;;22.90;38.00;;;;;;5011463;28;20026;-75
2021/05/10 09:25:29;;;;;;;4.95;1.38;;;22.90;38.10;;;;;;5011293;28;20034;-75
2021/05/10 09:28:17;;;;;;;4.63;2.17;;;22.90;38.20;;;;;;5011606;28;20026;-75
2021/05/10 09:30:45;;;;;;;8.13;1.90;;;23.10;37.90;;;;;;5011295;28;20387;-75
2021/05/10 09:33:24;;;;;;;3.85;1.60;;;23.20;37.40;;;;;;5011395;28;20050;-75
2021/05/10 09:35:57;;;;;;;2.38;1.10;;;23.20;37.40;;;;;;5010090;28;20018;-75
2021/05/10 09:38:25;;;;;;;5.85;1.45;;;23.20;37.00;;;;;;5011035;28;20054;-75
2021/05/10 09:40:52;;;;;;;4.18;1.48;;;23.10;36.80;;;;;;5011138;28;20030;-74
2021/05/10 09:43:21;;;;;;;7.35;1.70;;;23.00;36.80;;;;;;5010934;28;20078;-75
2021/05/10 09:45:57;;;;;;;3.42;1.20;;;23.00;37.00;;;;;;5011269;28;20034;-74
2021/05/10 09:48:30;;;;;;;5.13;1.25;;;23.00;37.00;;;;;;5010957;28;20022;-73
2021/05/10 09:50:57;;;;;;;3.38;1.70;;;22.80;37.80;;;;;;5011225;28;20026;-73
2021/05/10 09:53:31;;;;;;;3.95;1.80;;;22.80;37.90;;;;;;5010880;28;20474;-73
2021/05/10 09:55:58;;;;;;;7.43;1.80;;;22.90;37.40;;;;;;5010986;28;20026;-73
2021/05/10 09:58:39;;;;;;;6.32;1.38;;;23.10;37.40;;;;;;5010850;28;20025;-73
2021/05/10 10:01:05;;;;;;;3.17;1.30;;;23.10;37.40;;;;;;5010135;28;20087;-74
2021/05/10 10:03:30;;;;;;;2.95;1.30;;;23.00;37.20;;;;;;5010714;28;20030;-73
2021/05/10 10:05:59;;;;;;;4.50;1.40;;;22.90;37.40;;;;;;5010878;28;20040;-73
2021/05/10 10:08:25;;;;;;;5.00;1.30;;;23.00;37.60;;;;;;5010654;28;20074;-74
2021/05/10 10:10:51;;;;;;;5.07;1.70;;;23.20;37.70;;;;;;5009597;28;20038;-74
2021/05/10 10:13:18;;;;;;;3.25;1.30;;;23.20;37.90;;;;;;5009876;28;20022;-73
2021/05/10 10:15:47;;;;;;;1.90;1.25;;;23.20;38.10;;;;;;5009944;28;20022;-74
2021/05/10 10:18:15;;;;;;;2.53;1.40;;;23.30;38.00;;;;;;5010119;28;20028;-74
2021/05/10 10:20:43;;;;;;;6.72;1.40;;;23.30;38.00;;;;;;5010505;28;20014;-73
2021/05/10 10:23:11;;;;;;;6.13;1.48;;;23.30;37.60;;;;;;5010873;28;20048;-73
2021/05/10 10:25:38;;;;;;;4.03;1.40;;;23.00;37.60;;;;;;5010478;28;20034;-74
2021/05/10 10:28:07;;;;;;;3.67;1.48;;;23.00;37.70;;;;;;5010605;28;20029;-73
2021/05/10 10:30:38;;;;;;;4.68;1.63;;;22.90;37.80;;;;;;5009076;28;20030;-74
2021/05/10 10:33:08;;;;;;;3.20;1.10;;;22.80;38.20;;;;;;5011589;28;20474;-74
2021/05/10 10:35:37;;;;;;;3.25;1.60;;;22.50;39.00;;;;;;5011845;28;20026;-73
2021/05/10 10:38:05;;;;;;;4.65;2.40;;;22.30;40.30;;;;;;5011967;28;20061;-73
2021/05/10 10:40:30;;;;;;;4.05;1.73;;;22.30;40.40;;;;;;5016281;28;20381;-74
2021/05/10 10:43:24;;;;;;;3.22;1.70;;;22.20;40.00;;;;;;5011745;28;20046;-74
2021/05/10 10:46:19;;;;;;;3.00;1.70;;;22.00;40.80;;;;;;5011776;28;20045;-74
2021/05/10 10:48:45;;;;;;;4.50;1.65;;;21.80;41.30;;;;;;5019434;28;20087;-73
2021/05/10 10:51:14;;;;;;;4.82;1.73;;;21.90;42.00;;;;;;5011562;28;20112;-74
2021/05/10 10:53:43;;;;;;;3.88;1.77;;;22.10;42.00;;;;;;5011069;28;20082;-73
2021/05/10 10:56:08;;;;;;;2.70;1.25;;;22.10;41.90;;;;;;5014532;28;20082;-73
2021/05/10 10:58:34;;;;;;;4.38;1.70;;;22.20;41.80;;;;;;5010757;28;20130;-76
2021/05/10 11:01:01;;;;;;;4.85;1.73;;;22.00;42.00;;;;;;5010279;28;20407;-73
2021/05/10 11:03:27;;;;;;;6.28;1.92;;;22.10;42.50;;;;;;5010027;28;20033;-73
2021/05/10 11:05:54;;;;;;;3.72;1.50;;;22.00;42.80;;;;;;5009636;28;20117;-73
2021/05/10 11:08:45;;;;;;;2.22;1.45;;;22.00;42.80;;;;;;5009866;28;20387;-74
2021/05/10 11:11:27;;;;;;;6.68;1.65;;;22.10;42.50;;;;;;5009820;28;20022;-75
2021/05/10 11:13:52;;;;;;;4.30;1.20;;;21.90;43.10;;;;;;5009894;28;20030;-74
2021/05/10 11:16:42;;;;;;;3.55;1.70;;;21.80;43.90;;;;;;5009492;28;20530;-74
2021/05/10 11:19:27;;;;;;;8.98;2.25;;;21.90;43.70;;;;;;5009553;28;20452;-75
2021/05/10 11:21:52;;;;;;;3.28;1.75;;;21.70;44.50;;;;;;5011907;28;20049;-75
2021/05/10 11:24:29;;;;;;;6.53;2.03;;;21.60;45.30;;;;;;5016219;28;20382;-75
2021/05/10 11:26:56;;;;;;;6.85;2.05;;;21.70;45.40;;;;;;5014860;28;20612;-75
2021/05/10 11:29:24;;;;;;;4.32;2.05;;;21.80;45.30;;;;;;5012849;28;20026;-76
2021/05/10 11:31:53;;;;;;;3.95;1.70;;;21.40;45.60;;;;;;5013133;28;20026;-75
2021/05/10 11:34:33;;;;;;;6.57;1.40;;;21.40;46.30;;;;;;5013166;28;20093;-75
2021/05/10 11:36:59;;;;;;;5.38;1.90;;;21.30;46.50;;;;;;5013092;28;20029;-76
2021/05/10 11:39:27;;;;;;;4.00;1.88;;;21.30;46.70;;;;;;5012628;28;20490;-75
2021/05/10 11:42:00;;;;;;;5.03;1.90;;;21.40;47.10;;;;;;5012970;28;20034;-76
2021/05/10 11:44:34;;;;;;;6.47;1.70;;;21.40;46.70;;;;;;5012471;28;20049;-76
2021/05/10 11:47:08;;;;;;;4.78;1.60;;;21.50;46.30;;;;;;5011546;28;20026;-74
2021/05/10 11:49:43;;;;;;;6.10;1.80;;;21.40;46.00;;;;;;5012886;28;20049;-78
2021/05/10 11:52:15;;;;;;;5.00;1.63;;;21.20;46.40;;;;;;5012730;28;20025;-74
2021/05/10 11:54:44;;;;;;;2.60;1.40;;;20.90;47.20;;;;;;5012920;28;20064;-77
2021/05/10 11:57:12;;;;;;;5.00;1.50;;;20.90;47.90;;;;;;5012712;28;20072;-77
2021/05/10 11:59:47;;;;;;;3.58;1.48;;;20.70;49.00;;;;;;5012506;28;20022;-76
2021/05/10 12:02:26;;;;;;;2.22;1.55;;;20.30;50.60;;;;;;5012678;28;20018;-77
2021/05/10 12:04:59;;;;;;;6.35;1.50;;;20.30;51.10;;;;;;5012659;28;20037;-76
2021/05/10 12:07:27;;;;;;;4.97;1.40;;;20.20;51.00;;;;;;5012463;28;20046;-76
2021/05/10 12:10:00;;;;;;;5.22;1.13;;;20.10;51.00;;;;;;5012524;28;20394;-75
2021/05/10 12:12:29;;;;;;;2.10;0.80;;;19.80;51.70;;;;;;5012374;28;20049;-76
2021/05/10 12:14:58;;;;;;;3.13;1.17;;;19.90;51.70;;;;;;5012427;28;20490;-75
2021/05/10 12:17:27;;;;;;;2.53;1.17;;;19.90;51.30;;;;;;5012344;28;20086;-75
2021/05/10 12:20:01;;;;;;;2.50;1.20;;;19.90;51.00;;;;;;5012260;28;20030;-75
2021/05/10 12:22:29;;;;;;;3.97;1.20;;;19.80;51.10;;;;;;5012188;28;20598;-76
2021/05/10 12:25:07;;;;;;;7.20;1.15;;;19.90;51.20;;;;;;5012110;28;20049;-75
2021/05/10 12:27:37;;;;;;;2.55;1.10;;;19.80;51.20;;;;;;5012335;28;20378;-74
2021/05/10 12:30:29;;;;;;;2.08;1.08;;;19.80;51.50;;;;;;5012176;28;20030;-75
2021/05/10 12:33:00;;;;;;;6.45;1.10;;;19.90;51.20;;;;;;5011463;28;20026;-76
2021/05/10 12:35:31;;;;;;;2.17;0.70;;;19.90;51.10;;;;;;5011902;28;20030;-77
2021/05/10 12:37:59;;;;;;;3.05;1.20;;;19.90;50.80;;;;;;5012110;28;20026;-76
2021/05/10 12:40:29;;;;;;;3.35;1.00;;;20.00;50.50;;;;;;5011803;28;20040;-76
2021/05/10 12:43:08;;;;;;;1.92;1.10;;;19.90;50.90;;;;;;5012064;28;20059;-76
2021/05/10 12:45:36;;;;;;;6.47;1.17;;;20.00;51.20;;;;;;5011813;28;20038;-78
2021/05/10 12:48:21;;;;;;;2.50;0.93;;;20.30;50.00;;;;;;5011572;28;20646;-76
2021/05/10 12:50:51;;;;;;;3.20;0.80;;;20.40;49.00;;;;;;5011894;28;20360;-78
2021/05/10 12:53:36;;;;;;;1.00;0.70;;;20.50;48.90;;;;;;5011973;28;20574;-78
2021/05/10 12:56:11;;;;;;;3.38;0.68;;;20.50;48.60;;;;;;5012105;28;20376;-76
2021/05/10 12:58:37;;;;;;;0.85;0.60;;;20.60;48.20;;;;;;5012055;28;20443;-77